sensor_id;sensor_type;location;lat;lon;timestamp;P1;durP1;ratioP1;P2;durP2;ratioP2
58992;SDS011;44782;0.000;0.000;2023-03-01T00:01:15;2.40;;;2.20;;
58992;SDS011;44782;0.000;0.000;2023-03-01T00:03:35;2.23;;;2.03;;
58992;SDS011;44782;0.000;0.000;2023-03-01T00:05:51;2.47;;;2.27;;
58992;SDS011;44782;0.000;0.000;2023-03-01T00:08:06;2.70;;;2.50;;
58992;SDS011;44782;0.000;0.000;2023-03-01T00:10:22;2.93;;;2.50;;
58992;SDS011;44782;0.000;0.000;2023-03-01T00:12:38;2.50;;;2.30;;
58992;SDS011;44782;0.000;0.000;2023-03-01T00:14:53;2.43;;;2.23;;
58992;SDS011;44782;0.000;0.000;2023-03-01T00:17:09;2.40;;;2.20;;
58992;SDS011;44782;0.000;0.000;2023-03-01T00:19:24;2.70;;;2.50;;
58992;SDS011;44782;0.000;0.000;2023-03-01T00:21:40;2.70;;;2.50;;
58992;SDS011;44782;0.000;0.000;2023-03-01T00:23:57;2.47;;;2.27;;
58992;SDS011;44782;0.000;0.000;2023-03-01T00:26:13;2.47;;;2.27;;
58992;SDS011;44782;0.000;0.000;2023-03-01T00:28:29;2.40;;;2.20;;
58992;SDS011;44782;0.000;0.000;2023-03-01T00:30:45;2.43;;;2.13;;
58992;SDS011;44782;0.000;0.000;2023-03-01T00:33:00;2.53;;;2.33;;
58992;SDS011;44782;0.000;0.000;2023-03-01T00:35:16;2.60;;;2.40;;
58992;SDS011;44782;0.000;0.000;2023-03-01T00:37:32;2.17;;;2.07;;
58992;SDS011;44782;0.000;0.000;2023-03-01T00:39:47;2.70;;;2.30;;
58992;SDS011;44782;0.000;0.000;2023-03-01T00:42:04;2.40;;;2.20;;
58992;SDS011;44782;0.000;0.000;2023-03-01T00:44:20;2.50;;;2.30;;
58992;SDS011;44782;0.000;0.000;2023-03-01T00:46:36;2.10;;;2.00;;
58992;SDS011;44782;0.000;0.000;2023-03-01T00:48:51;2.40;;;2.20;;
58992;SDS011;44782;0.000;0.000;2023-03-01T00:51:18;2.40;;;2.20;;
58992;SDS011;44782;0.000;0.000;2023-03-01T00:53:35;2.43;;;2.23;;
58992;SDS011;44782;0.000;0.000;2023-03-01T00:55:51;2.53;;;2.33;;
58992;SDS011;44782;0.000;0.000;2023-03-01T00:58:07;2.47;;;2.23;;
58992;SDS011;44782;0.000;0.000;2023-03-01T01:00:23;3.30;;;2.50;;
58992;SDS011;44782;0.000;0.000;2023-03-01T01:02:38;2.47;;;2.27;;
58992;SDS011;44782;0.000;0.000;2023-03-01T01:04:54;2.30;;;2.10;;
58992;SDS011;44782;0.000;0.000;2023-03-01T01:07:10;2.40;;;2.20;;
58992;SDS011;44782;0.000;0.000;2023-03-01T01:09:26;2.30;;;2.10;;
58992;SDS011;44782;0.000;0.000;2023-03-01T01:11:42;2.40;;;2.20;;
58992;SDS011;44782;0.000;0.000;2023-03-01T01:13:58;2.60;;;2.40;;
58992;SDS011;44782;0.000;0.000;2023-03-01T01:16:15;2.40;;;2.20;;
58992;SDS011;44782;0.000;0.000;2023-03-01T01:18:31;2.40;;;2.20;;
58992;SDS011;44782;0.000;0.000;2023-03-01T01:20:47;2.13;;;1.93;;
58992;SDS011;44782;0.000;0.000;2023-03-01T01:23:04;2.50;;;2.30;;
58992;SDS011;44782;0.000;0.000;2023-03-01T01:25:20;2.27;;;2.07;;
58992;SDS011;44782;0.000;0.000;2023-03-01T01:27:36;2.50;;;2.30;;
58992;SDS011;44782;0.000;0.000;2023-03-01T01:29:55;2.40;;;2.20;;
58992;SDS011;44782;0.000;0.000;2023-03-01T01:32:10;2.50;;;2.30;;
58992;SDS011;44782;0.000;0.000;2023-03-01T01:34:26;2.40;;;2.20;;
58992;SDS011;44782;0.000;0.000;2023-03-01T01:36:42;2.63;;;2.43;;
58992;SDS011;44782;0.000;0.000;2023-03-01T01:38:58;2.20;;;2.00;;
58992;SDS011;44782;0.000;0.000;2023-03-01T01:41:15;2.40;;;2.20;;
58992;SDS011;44782;0.000;0.000;2023-03-01T01:43:34;2.40;;;2.00;;
58992;SDS011;44782;0.000;0.000;2023-03-01T01:45:54;2.50;;;2.30;;
58992;SDS011;44782;0.000;0.000;2023-03-01T01:48:48;2.50;;;2.30;;
58992;SDS011;44782;0.000;0.000;2023-03-01T01:51:11;2.23;;;2.07;;
58992;SDS011;44782;0.000;0.000;2023-03-01T01:53:29;2.60;;;2.40;;
58992;SDS011;44782;0.000;0.000;2023-03-01T01:55:46;2.40;;;2.20;;
58992;SDS011;44782;0.000;0.000;2023-03-01T01:58:05;2.23;;;2.10;;
58992;SDS011;44782;0.000;0.000;2023-03-01T02:00:25;2.20;;;2.10;;
58992;SDS011;44782;0.000;0.000;2023-03-01T02:02:42;2.50;;;2.30;;
58992;SDS011;44782;0.000;0.000;2023-03-01T02:05:03;2.70;;;2.50;;
58992;SDS011;44782;0.000;0.000;2023-03-01T02:09:53;2.70;;;2.50;;
58992;SDS011;44782;0.000;0.000;2023-03-01T02:12:08;2.50;;;2.30;;
58992;SDS011;44782;0.000;0.000;2023-03-01T02:14:24;2.63;;;2.43;;
58992;SDS011;44782;0.000;0.000;2023-03-01T02:16:40;2.50;;;2.30;;
58992;SDS011;44782;0.000;0.000;2023-03-01T02:18:56;2.47;;;2.27;;
58992;SDS011;44782;0.000;0.000;2023-03-01T02:23:47;2.53;;;2.30;;
58992;SDS011;44782;0.000;0.000;2023-03-01T02:28:51;2.80;;;2.60;;
58992;SDS011;44782;0.000;0.000;2023-03-01T02:31:08;2.80;;;2.60;;
58992;SDS011;44782;0.000;0.000;2023-03-01T02:33:44;2.73;;;2.53;;
58992;SDS011;44782;0.000;0.000;2023-03-01T02:36:00;2.93;;;2.53;;
58992;SDS011;44782;0.000;0.000;2023-03-01T02:38:23;2.77;;;2.57;;
58992;SDS011;44782;0.000;0.000;2023-03-01T02:40:39;3.00;;;2.80;;
58992;SDS011;44782;0.000;0.000;2023-03-01T02:42:57;3.00;;;2.80;;
58992;SDS011;44782;0.000;0.000;2023-03-01T02:45:13;2.90;;;2.70;;
58992;SDS011;44782;0.000;0.000;2023-03-01T02:47:29;2.80;;;2.60;;
58992;SDS011;44782;0.000;0.000;2023-03-01T02:49:45;2.90;;;2.70;;
58992;SDS011;44782;0.000;0.000;2023-03-01T02:54:27;3.00;;;2.70;;
58992;SDS011;44782;0.000;0.000;2023-03-01T02:56:47;2.63;;;2.47;;
58992;SDS011;44782;0.000;0.000;2023-03-01T02:59:04;3.30;;;3.00;;
58992;SDS011;44782;0.000;0.000;2023-03-01T03:01:20;3.00;;;2.80;;
58992;SDS011;44782;0.000;0.000;2023-03-01T03:03:36;3.03;;;2.83;;
58992;SDS011;44782;0.000;0.000;2023-03-01T03:05:52;3.30;;;3.10;;
58992;SDS011;44782;0.000;0.000;2023-03-01T03:10:32;3.07;;;2.87;;
58992;SDS011;44782;0.000;0.000;2023-03-01T03:12:54;3.13;;;2.93;;
58992;SDS011;44782;0.000;0.000;2023-03-01T03:15:11;3.30;;;3.00;;
58992;SDS011;44782;0.000;0.000;2023-03-01T03:17:27;2.97;;;2.77;;
58992;SDS011;44782;0.000;0.000;2023-03-01T03:19:43;3.20;;;3.00;;
58992;SDS011;44782;0.000;0.000;2023-03-01T03:22:00;3.40;;;3.10;;
58992;SDS011;44782;0.000;0.000;2023-03-01T03:24:16;3.20;;;3.00;;
58992;SDS011;44782;0.000;0.000;2023-03-01T03:26:33;3.60;;;3.30;;
58992;SDS011;44782;0.000;0.000;2023-03-01T03:28:48;3.50;;;3.20;;
58992;SDS011;44782;0.000;0.000;2023-03-01T03:31:05;3.20;;;3.00;;
58992;SDS011;44782;0.000;0.000;2023-03-01T03:33:22;3.10;;;2.90;;
58992;SDS011;44782;0.000;0.000;2023-03-01T03:35:39;3.03;;;2.83;;
58992;SDS011;44782;0.000;0.000;2023-03-01T03:37:57;3.27;;;3.07;;
58992;SDS011;44782;0.000;0.000;2023-03-01T03:40:17;3.40;;;3.10;;
58992;SDS011;44782;0.000;0.000;2023-03-01T03:42:33;2.83;;;2.63;;
58992;SDS011;44782;0.000;0.000;2023-03-01T03:44:48;3.07;;;2.87;;
58992;SDS011;44782;0.000;0.000;2023-03-01T03:47:04;3.10;;;2.90;;
58992;SDS011;44782;0.000;0.000;2023-03-01T03:49:20;3.40;;;2.87;;
58992;SDS011;44782;0.000;0.000;2023-03-01T03:51:35;3.10;;;2.90;;
58992;SDS011;44782;0.000;0.000;2023-03-01T03:53:51;3.07;;;2.80;;
58992;SDS011;44782;0.000;0.000;2023-03-01T03:56:07;3.20;;;3.00;;
58992;SDS011;44782;0.000;0.000;2023-03-01T03:58:23;3.40;;;3.20;;
58992;SDS011;44782;0.000;0.000;2023-03-01T04:00:41;3.40;;;3.10;;
58992;SDS011;44782;0.000;0.000;2023-03-01T04:02:58;3.17;;;2.97;;
58992;SDS011;44782;0.000;0.000;2023-03-01T04:05:14;3.30;;;3.07;;
58992;SDS011;44782;0.000;0.000;2023-03-01T04:07:31;3.13;;;2.93;;
58992;SDS011;44782;0.000;0.000;2023-03-01T04:09:47;3.17;;;2.97;;
58992;SDS011;44782;0.000;0.000;2023-03-01T04:12:02;3.17;;;2.97;;
58992;SDS011;44782;0.000;0.000;2023-03-01T04:14:18;3.57;;;3.27;;
58992;SDS011;44782;0.000;0.000;2023-03-01T04:16:33;3.33;;;3.13;;
58992;SDS011;44782;0.000;0.000;2023-03-01T04:18:49;3.33;;;3.03;;
58992;SDS011;44782;0.000;0.000;2023-03-01T04:21:05;3.37;;;3.10;;
58992;SDS011;44782;0.000;0.000;2023-03-01T04:23:21;3.20;;;3.00;;
58992;SDS011;44782;0.000;0.000;2023-03-01T04:25:37;3.10;;;2.80;;
58992;SDS011;44782;0.000;0.000;2023-03-01T04:28:12;3.13;;;2.90;;
58992;SDS011;44782;0.000;0.000;2023-03-01T04:30:27;3.30;;;3.00;;
58992;SDS011;44782;0.000;0.000;2023-03-01T04:32:43;3.10;;;2.90;;
58992;SDS011;44782;0.000;0.000;2023-03-01T04:34:59;3.23;;;2.93;;
58992;SDS011;44782;0.000;0.000;2023-03-01T04:37:15;3.20;;;3.00;;
58992;SDS011;44782;0.000;0.000;2023-03-01T04:39:31;2.93;;;2.73;;
58992;SDS011;44782;0.000;0.000;2023-03-01T04:41:47;3.10;;;2.90;;
58992;SDS011;44782;0.000;0.000;2023-03-01T04:44:03;3.43;;;3.13;;
58992;SDS011;44782;0.000;0.000;2023-03-01T04:46:19;3.30;;;3.10;;
58992;SDS011;44782;0.000;0.000;2023-03-01T04:48:36;3.20;;;3.00;;
58992;SDS011;44782;0.000;0.000;2023-03-01T04:50:53;3.40;;;3.20;;
58992;SDS011;44782;0.000;0.000;2023-03-01T04:53:08;3.40;;;3.10;;
58992;SDS011;44782;0.000;0.000;2023-03-01T04:55:27;3.07;;;2.87;;
58992;SDS011;44782;0.000;0.000;2023-03-01T04:57:44;3.40;;;3.10;;
58992;SDS011;44782;0.000;0.000;2023-03-01T04:59:59;3.30;;;3.10;;
58992;SDS011;44782;0.000;0.000;2023-03-01T05:02:15;3.40;;;3.10;;
58992;SDS011;44782;0.000;0.000;2023-03-01T05:04:31;3.50;;;3.20;;
58992;SDS011;44782;0.000;0.000;2023-03-01T05:06:46;3.63;;;3.37;;
58992;SDS011;44782;0.000;0.000;2023-03-01T05:09:02;3.30;;;3.00;;
58992;SDS011;44782;0.000;0.000;2023-03-01T05:11:18;3.60;;;3.30;;
58992;SDS011;44782;0.000;0.000;2023-03-01T05:13:33;3.37;;;3.17;;
58992;SDS011;44782;0.000;0.000;2023-03-01T05:15:54;3.60;;;3.30;;
58992;SDS011;44782;0.000;0.000;2023-03-01T05:18:11;3.20;;;3.00;;
58992;SDS011;44782;0.000;0.000;2023-03-01T05:20:28;3.37;;;3.17;;
58992;SDS011;44782;0.000;0.000;2023-03-01T05:22:44;3.23;;;3.03;;
58992;SDS011;44782;0.000;0.000;2023-03-01T05:25:00;3.73;;;3.43;;
58992;SDS011;44782;0.000;0.000;2023-03-01T05:27:16;3.60;;;3.30;;
58992;SDS011;44782;0.000;0.000;2023-03-01T05:29:32;3.53;;;3.23;;
58992;SDS011;44782;0.000;0.000;2023-03-01T05:31:50;3.87;;;3.57;;
58992;SDS011;44782;0.000;0.000;2023-03-01T05:34:07;3.60;;;3.30;;
58992;SDS011;44782;0.000;0.000;2023-03-01T05:36:22;3.60;;;3.30;;
58992;SDS011;44782;0.000;0.000;2023-03-01T05:38:38;3.70;;;3.40;;
58992;SDS011;44782;0.000;0.000;2023-03-01T05:40:54;3.90;;;3.60;;
58992;SDS011;44782;0.000;0.000;2023-03-01T05:43:10;3.70;;;3.40;;
58992;SDS011;44782;0.000;0.000;2023-03-01T05:45:27;4.17;;;3.83;;
58992;SDS011;44782;0.000;0.000;2023-03-01T05:47:43;3.30;;;3.10;;
58992;SDS011;44782;0.000;0.000;2023-03-01T05:50:00;3.83;;;3.53;;
58992;SDS011;44782;0.000;0.000;2023-03-01T05:52:16;3.70;;;3.30;;
58992;SDS011;44782;0.000;0.000;2023-03-01T05:54:31;3.47;;;3.23;;
58992;SDS011;44782;0.000;0.000;2023-03-01T05:56:48;3.83;;;3.53;;
58992;SDS011;44782;0.000;0.000;2023-03-01T05:59:04;3.67;;;3.47;;
58992;SDS011;44782;0.000;0.000;2023-03-01T06:01:20;4.13;;;3.80;;
58992;SDS011;44782;0.000;0.000;2023-03-01T06:03:36;3.80;;;3.50;;
58992;SDS011;44782;0.000;0.000;2023-03-01T06:05:55;4.13;;;3.73;;
58992;SDS011;44782;0.000;0.000;2023-03-01T06:08:12;3.60;;;3.40;;
58992;SDS011;44782;0.000;0.000;2023-03-01T06:10:28;4.00;;;3.70;;
58992;SDS011;44782;0.000;0.000;2023-03-01T06:12:44;3.93;;;3.63;;
58992;SDS011;44782;0.000;0.000;2023-03-01T06:15:00;4.13;;;3.83;;
58992;SDS011;44782;0.000;0.000;2023-03-01T06:17:15;4.00;;;3.70;;
58992;SDS011;44782;0.000;0.000;2023-03-01T06:19:31;4.27;;;3.90;;
58992;SDS011;44782;0.000;0.000;2023-03-01T06:21:47;4.23;;;3.90;;
58992;SDS011;44782;0.000;0.000;2023-03-01T06:24:02;4.07;;;3.77;;
58992;SDS011;44782;0.000;0.000;2023-03-01T06:26:18;4.00;;;3.70;;
58992;SDS011;44782;0.000;0.000;2023-03-01T06:28:34;3.80;;;3.50;;
58992;SDS011;44782;0.000;0.000;2023-03-01T06:30:51;3.97;;;3.67;;
58992;SDS011;44782;0.000;0.000;2023-03-01T06:33:06;3.90;;;3.60;;
58992;SDS011;44782;0.000;0.000;2023-03-01T06:35:22;4.20;;;3.87;;
58992;SDS011;44782;0.000;0.000;2023-03-01T06:37:38;5.37;;;3.87;;
58992;SDS011;44782;0.000;0.000;2023-03-01T06:39:54;3.90;;;3.60;;
58992;SDS011;44782;0.000;0.000;2023-03-01T06:42:09;3.60;;;3.30;;
58992;SDS011;44782;0.000;0.000;2023-03-01T06:44:26;3.90;;;3.70;;
58992;SDS011;44782;0.000;0.000;2023-03-01T06:46:42;4.20;;;3.90;;
58992;SDS011;44782;0.000;0.000;2023-03-01T06:48:58;4.57;;;4.17;;
58992;SDS011;44782;0.000;0.000;2023-03-01T06:51:13;4.37;;;4.03;;
58992;SDS011;44782;0.000;0.000;2023-03-01T06:53:29;4.20;;;3.90;;
58992;SDS011;44782;0.000;0.000;2023-03-01T06:55:45;4.50;;;4.20;;
58992;SDS011;44782;0.000;0.000;2023-03-01T06:58:01;4.20;;;3.90;;
58992;SDS011;44782;0.000;0.000;2023-03-01T07:00:18;4.47;;;4.17;;
58992;SDS011;44782;0.000;0.000;2023-03-01T07:02:34;4.53;;;4.20;;
58992;SDS011;44782;0.000;0.000;2023-03-01T07:04:50;4.43;;;4.13;;
58992;SDS011;44782;0.000;0.000;2023-03-01T07:07:06;4.53;;;4.23;;
58992;SDS011;44782;0.000;0.000;2023-03-01T07:09:22;4.60;;;4.20;;
58992;SDS011;44782;0.000;0.000;2023-03-01T07:11:38;4.30;;;4.00;;
58992;SDS011;44782;0.000;0.000;2023-03-01T07:13:54;4.60;;;4.20;;
58992;SDS011;44782;0.000;0.000;2023-03-01T07:16:10;4.73;;;4.33;;
58992;SDS011;44782;0.000;0.000;2023-03-01T07:18:26;4.80;;;4.40;;
58992;SDS011;44782;0.000;0.000;2023-03-01T07:20:42;4.27;;;3.97;;
58992;SDS011;44782;0.000;0.000;2023-03-01T07:22:57;4.40;;;4.10;;
58992;SDS011;44782;0.000;0.000;2023-03-01T07:25:13;4.37;;;4.07;;
58992;SDS011;44782;0.000;0.000;2023-03-01T07:27:29;4.47;;;4.07;;
58992;SDS011;44782;0.000;0.000;2023-03-01T07:29:44;5.10;;;4.70;;
58992;SDS011;44782;0.000;0.000;2023-03-01T07:32:00;4.50;;;4.20;;
58992;SDS011;44782;0.000;0.000;2023-03-01T07:34:16;4.77;;;4.33;;
58992;SDS011;44782;0.000;0.000;2023-03-01T07:36:31;4.70;;;4.30;;
58992;SDS011;44782;0.000;0.000;2023-03-01T07:38:47;4.93;;;4.50;;
58992;SDS011;44782;0.000;0.000;2023-03-01T07:41:03;4.20;;;3.90;;
58992;SDS011;44782;0.000;0.000;2023-03-01T07:43:20;5.00;;;4.50;;
58992;SDS011;44782;0.000;0.000;2023-03-01T07:45:36;4.43;;;4.03;;
58992;SDS011;44782;0.000;0.000;2023-03-01T07:47:52;4.43;;;4.03;;
58992;SDS011;44782;0.000;0.000;2023-03-01T07:50:08;4.20;;;3.90;;
58992;SDS011;44782;0.000;0.000;2023-03-01T07:52:24;4.13;;;3.83;;
58992;SDS011;44782;0.000;0.000;2023-03-01T07:54:42;4.20;;;3.90;;
58992;SDS011;44782;0.000;0.000;2023-03-01T07:56:59;4.00;;;3.70;;
58992;SDS011;44782;0.000;0.000;2023-03-01T07:59:14;4.23;;;3.93;;
58992;SDS011;44782;0.000;0.000;2023-03-01T08:01:30;4.10;;;3.80;;
58992;SDS011;44782;0.000;0.000;2023-03-01T08:03:46;4.20;;;3.80;;
58992;SDS011;44782;0.000;0.000;2023-03-01T08:06:03;4.30;;;4.00;;
58992;SDS011;44782;0.000;0.000;2023-03-01T08:08:21;4.47;;;4.10;;
58992;SDS011;44782;0.000;0.000;2023-03-01T08:10:36;4.60;;;4.20;;
58992;SDS011;44782;0.000;0.000;2023-03-01T08:12:52;4.57;;;4.27;;
58992;SDS011;44782;0.000;0.000;2023-03-01T08:15:08;4.20;;;3.90;;
58992;SDS011;44782;0.000;0.000;2023-03-01T08:17:24;4.60;;;4.20;;
58992;SDS011;44782;0.000;0.000;2023-03-01T08:19:39;4.47;;;4.07;;
58992;SDS011;44782;0.000;0.000;2023-03-01T08:21:55;4.17;;;3.87;;
58992;SDS011;44782;0.000;0.000;2023-03-01T08:24:13;4.27;;;3.97;;
58992;SDS011;44782;0.000;0.000;2023-03-01T08:26:28;4.90;;;4.50;;
58992;SDS011;44782;0.000;0.000;2023-03-01T08:28:44;4.40;;;4.00;;
58992;SDS011;44782;0.000;0.000;2023-03-01T08:31:01;3.87;;;3.57;;
58992;SDS011;44782;0.000;0.000;2023-03-01T08:33:16;4.20;;;3.90;;
58992;SDS011;44782;0.000;0.000;2023-03-01T08:35:32;4.43;;;4.03;;
58992;SDS011;44782;0.000;0.000;2023-03-01T08:37:48;4.10;;;3.80;;
58992;SDS011;44782;0.000;0.000;2023-03-01T08:40:03;4.13;;;3.83;;
58992;SDS011;44782;0.000;0.000;2023-03-01T08:42:22;4.37;;;4.07;;
58992;SDS011;44782;0.000;0.000;2023-03-01T08:44:37;4.30;;;4.00;;
58992;SDS011;44782;0.000;0.000;2023-03-01T08:46:53;4.20;;;3.90;;
58992;SDS011;44782;0.000;0.000;2023-03-01T08:49:11;4.37;;;4.07;;
58992;SDS011;44782;0.000;0.000;2023-03-01T08:51:29;4.10;;;3.80;;
58992;SDS011;44782;0.000;0.000;2023-03-01T08:53:47;4.87;;;4.30;;
58992;SDS011;44782;0.000;0.000;2023-03-01T08:56:04;4.73;;;4.33;;
58992;SDS011;44782;0.000;0.000;2023-03-01T08:58:19;4.33;;;4.03;;
58992;SDS011;44782;0.000;0.000;2023-03-01T09:00:35;4.30;;;4.00;;
58992;SDS011;44782;0.000;0.000;2023-03-01T09:02:51;4.80;;;4.40;;
58992;SDS011;44782;0.000;0.000;2023-03-01T09:05:07;4.93;;;4.53;;
58992;SDS011;44782;0.000;0.000;2023-03-01T09:07:23;5.00;;;4.60;;
58992;SDS011;44782;0.000;0.000;2023-03-01T09:09:43;4.30;;;4.00;;
58992;SDS011;44782;0.000;0.000;2023-03-01T09:11:58;4.70;;;4.30;;
58992;SDS011;44782;0.000;0.000;2023-03-01T09:14:14;4.70;;;4.37;;
58992;SDS011;44782;0.000;0.000;2023-03-01T09:16:30;4.57;;;4.27;;
58992;SDS011;44782;0.000;0.000;2023-03-01T09:18:53;4.90;;;4.50;;
58992;SDS011;44782;0.000;0.000;2023-03-01T09:21:10;4.73;;;4.33;;
58992;SDS011;44782;0.000;0.000;2023-03-01T09:23:28;4.70;;;4.40;;
58992;SDS011;44782;0.000;0.000;2023-03-01T09:25:43;5.00;;;4.60;;
58992;SDS011;44782;0.000;0.000;2023-03-01T09:27:59;6.33;;;4.97;;
58992;SDS011;44782;0.000;0.000;2023-03-01T09:30:15;5.53;;;4.77;;
58992;SDS011;44782;0.000;0.000;2023-03-01T09:32:31;4.97;;;4.57;;
58992;SDS011;44782;0.000;0.000;2023-03-01T09:34:47;5.27;;;4.87;;
58992;SDS011;44782;0.000;0.000;2023-03-01T09:37:20;5.03;;;4.60;;
58992;SDS011;44782;0.000;0.000;2023-03-01T09:39:36;5.17;;;4.77;;
58992;SDS011;44782;0.000;0.000;2023-03-01T09:42:02;5.00;;;4.60;;
58992;SDS011;44782;0.000;0.000;2023-03-01T09:46:55;5.37;;;4.87;;
58992;SDS011;44782;0.000;0.000;2023-03-01T09:49:13;5.07;;;4.67;;
58992;SDS011;44782;0.000;0.000;2023-03-01T09:51:40;5.00;;;4.60;;
58992;SDS011;44782;0.000;0.000;2023-03-01T09:53:58;4.63;;;4.23;;
58992;SDS011;44782;0.000;0.000;2023-03-01T09:56:24;4.70;;;4.30;;
58992;SDS011;44782;0.000;0.000;2023-03-01T09:58:48;3.87;;;3.57;;
58992;SDS011;44782;0.000;0.000;2023-03-01T10:01:10;3.73;;;3.43;;
58992;SDS011;44782;0.000;0.000;2023-03-01T10:06:22;3.93;;;3.43;;
58992;SDS011;44782;0.000;0.000;2023-03-01T10:08:50;4.13;;;3.50;;
58992;SDS011;44782;0.000;0.000;2023-03-01T10:11:26;4.67;;;3.57;;
58992;SDS011;44782;0.000;0.000;2023-03-01T10:13:47;3.50;;;3.20;;
58992;SDS011;44782;0.000;0.000;2023-03-01T10:16:17;3.70;;;3.40;;
58992;SDS011;44782;0.000;0.000;2023-03-01T10:19:01;3.70;;;3.40;;
58992;SDS011;44782;0.000;0.000;2023-03-01T10:21:19;3.87;;;3.43;;
58992;SDS011;44782;0.000;0.000;2023-03-01T10:23:35;4.07;;;3.70;;
58992;SDS011;44782;0.000;0.000;2023-03-01T10:28:29;3.77;;;3.40;;
58992;SDS011;44782;0.000;0.000;2023-03-01T10:30:59;4.33;;;3.30;;
58992;SDS011;44782;0.000;0.000;2023-03-01T10:33:20;3.97;;;3.50;;
58992;SDS011;44782;0.000;0.000;2023-03-01T10:35:42;5.20;;;3.60;;
58992;SDS011;44782;0.000;0.000;2023-03-01T10:37:58;4.00;;;3.47;;
58992;SDS011;44782;0.000;0.000;2023-03-01T10:40:19;4.10;;;3.40;;
58992;SDS011;44782;0.000;0.000;2023-03-01T10:42:38;4.37;;;3.60;;
58992;SDS011;44782;0.000;0.000;2023-03-01T10:45:44;4.20;;;3.53;;
58992;SDS011;44782;0.000;0.000;2023-03-01T10:50:28;3.50;;;3.10;;
58992;SDS011;44782;0.000;0.000;2023-03-01T10:52:44;4.63;;;3.50;;
58992;SDS011;44782;0.000;0.000;2023-03-01T10:57:35;4.63;;;3.30;;
58992;SDS011;44782;0.000;0.000;2023-03-01T11:00:00;3.67;;;3.20;;
58992;SDS011;44782;0.000;0.000;2023-03-01T11:02:37;3.80;;;3.10;;
58992;SDS011;44782;0.000;0.000;2023-03-01T11:07:27;3.73;;;3.00;;
58992;SDS011;44782;0.000;0.000;2023-03-01T11:09:43;3.40;;;3.10;;
58992;SDS011;44782;0.000;0.000;2023-03-01T11:11:59;3.67;;;3.37;;
58992;SDS011;44782;0.000;0.000;2023-03-01T11:14:16;3.70;;;3.37;;
58992;SDS011;44782;0.000;0.000;2023-03-01T11:16:36;3.50;;;3.20;;
58992;SDS011;44782;0.000;0.000;2023-03-01T11:18:58;3.73;;;3.20;;
58992;SDS011;44782;0.000;0.000;2023-03-01T11:21:35;3.40;;;3.03;;
58992;SDS011;44782;0.000;0.000;2023-03-01T11:23:58;3.60;;;3.00;;
58992;SDS011;44782;0.000;0.000;2023-03-01T11:26:16;4.70;;;3.27;;
58992;SDS011;44782;0.000;0.000;2023-03-01T11:28:33;4.97;;;3.00;;
58992;SDS011;44782;0.000;0.000;2023-03-01T11:33:21;4.30;;;3.27;;
58992;SDS011;44782;0.000;0.000;2023-03-01T11:36:01;4.27;;;3.20;;
58992;SDS011;44782;0.000;0.000;2023-03-01T11:38:23;3.30;;;3.00;;
58992;SDS011;44782;0.000;0.000;2023-03-01T11:40:42;3.40;;;3.10;;
58992;SDS011;44782;0.000;0.000;2023-03-01T12:05:36;3.47;;;3.17;;
58992;SDS011;44782;0.000;0.000;2023-03-01T12:08:02;4.07;;;2.90;;
58992;SDS011;44782;0.000;0.000;2023-03-01T12:15:33;3.10;;;2.90;;
58992;SDS011;44782;0.000;0.000;2023-03-01T12:41:51;2.63;;;2.43;;
58992;SDS011;44782;0.000;0.000;2023-03-01T12:44:48;2.77;;;2.57;;
58992;SDS011;44782;0.000;0.000;2023-03-01T12:47:23;3.00;;;2.70;;
58992;SDS011;44782;0.000;0.000;2023-03-01T12:49:55;2.87;;;2.67;;
58992;SDS011;44782;0.000;0.000;2023-03-01T12:52:16;2.77;;;2.57;;
58992;SDS011;44782;0.000;0.000;2023-03-01T12:54:44;3.27;;;2.80;;
58992;SDS011;44782;0.000;0.000;2023-03-01T12:57:43;3.17;;;2.80;;
58992;SDS011;44782;0.000;0.000;2023-03-01T13:00:16;2.90;;;2.70;;
58992;SDS011;44782;0.000;0.000;2023-03-01T13:02:45;2.80;;;2.60;;
58992;SDS011;44782;0.000;0.000;2023-03-01T13:07:52;2.70;;;2.50;;
58992;SDS011;44782;0.000;0.000;2023-03-01T13:12:53;2.90;;;2.63;;
58992;SDS011;44782;0.000;0.000;2023-03-01T13:15:28;2.60;;;2.40;;
58992;SDS011;44782;0.000;0.000;2023-03-01T13:17:51;3.07;;;2.77;;
58992;SDS011;44782;0.000;0.000;2023-03-01T13:20:11;3.00;;;2.70;;
58992;SDS011;44782;0.000;0.000;2023-03-01T13:22:30;2.80;;;2.60;;
58992;SDS011;44782;0.000;0.000;2023-03-01T13:24:48;2.80;;;2.57;;
58992;SDS011;44782;0.000;0.000;2023-03-01T13:32:12;2.70;;;2.50;;
58992;SDS011;44782;0.000;0.000;2023-03-01T13:34:39;2.73;;;2.53;;
58992;SDS011;44782;0.000;0.000;2023-03-01T13:37:08;2.70;;;2.50;;
58992;SDS011;44782;0.000;0.000;2023-03-01T13:39:26;2.60;;;2.40;;
58992;SDS011;44782;0.000;0.000;2023-03-01T13:41:49;2.70;;;2.50;;
58992;SDS011;44782;0.000;0.000;2023-03-01T13:44:18;2.70;;;2.50;;
58992;SDS011;44782;0.000;0.000;2023-03-01T13:46:39;2.80;;;2.60;;
58992;SDS011;44782;0.000;0.000;2023-03-01T13:48:56;2.80;;;2.60;;
58992;SDS011;44782;0.000;0.000;2023-03-01T13:51:12;2.93;;;2.50;;
58992;SDS011;44782;0.000;0.000;2023-03-01T13:53:33;2.90;;;2.53;;
58992;SDS011;44782;0.000;0.000;2023-03-01T13:56:06;2.60;;;2.40;;
58992;SDS011;44782;0.000;0.000;2023-03-01T14:01:36;2.83;;;2.60;;
58992;SDS011;44782;0.000;0.000;2023-03-01T14:03:51;2.60;;;2.40;;
58992;SDS011;44782;0.000;0.000;2023-03-01T14:06:09;2.93;;;2.67;;
58992;SDS011;44782;0.000;0.000;2023-03-01T14:08:30;2.80;;;2.60;;
58992;SDS011;44782;0.000;0.000;2023-03-01T14:16:03;3.30;;;3.00;;
58992;SDS011;44782;0.000;0.000;2023-03-01T14:18:43;3.03;;;2.83;;
58992;SDS011;44782;0.000;0.000;2023-03-01T14:21:12;3.17;;;2.87;;
58992;SDS011;44782;0.000;0.000;2023-03-01T14:23:30;3.17;;;2.97;;
58992;SDS011;44782;0.000;0.000;2023-03-01T14:25:53;2.70;;;2.50;;
58992;SDS011;44782;0.000;0.000;2023-03-01T14:28:21;3.23;;;2.93;;
58992;SDS011;44782;0.000;0.000;2023-03-01T14:30:44;2.90;;;2.70;;
58992;SDS011;44782;0.000;0.000;2023-03-01T14:33:02;3.13;;;2.83;;
58992;SDS011;44782;0.000;0.000;2023-03-01T14:35:22;3.13;;;2.93;;
58992;SDS011;44782;0.000;0.000;2023-03-01T14:37:40;3.67;;;2.90;;
58992;SDS011;44782;0.000;0.000;2023-03-01T14:39:55;3.13;;;2.93;;
58992;SDS011;44782;0.000;0.000;2023-03-01T14:42:12;3.37;;;3.07;;
58992;SDS011;44782;0.000;0.000;2023-03-01T14:44:29;3.17;;;2.87;;
58992;SDS011;44782;0.000;0.000;2023-03-01T14:46:51;3.40;;;3.10;;
58992;SDS011;44782;0.000;0.000;2023-03-01T14:49:11;3.37;;;3.13;;
58992;SDS011;44782;0.000;0.000;2023-03-01T14:51:27;3.20;;;2.97;;
58992;SDS011;44782;0.000;0.000;2023-03-01T14:53:43;3.63;;;3.10;;
58992;SDS011;44782;0.000;0.000;2023-03-01T14:56:00;3.20;;;2.97;;
58992;SDS011;44782;0.000;0.000;2023-03-01T14:58:19;3.00;;;2.80;;
58992;SDS011;44782;0.000;0.000;2023-03-01T15:00:38;3.30;;;3.00;;
58992;SDS011;44782;0.000;0.000;2023-03-01T15:03:00;2.90;;;2.70;;
58992;SDS011;44782;0.000;0.000;2023-03-01T15:05:32;2.80;;;2.60;;
58992;SDS011;44782;0.000;0.000;2023-03-01T15:07:48;3.10;;;2.80;;
58992;SDS011;44782;0.000;0.000;2023-03-01T15:10:12;3.10;;;2.80;;
58992;SDS011;44782;0.000;0.000;2023-03-01T15:12:50;2.73;;;2.53;;
58992;SDS011;44782;0.000;0.000;2023-03-01T15:15:21;2.90;;;2.60;;
58992;SDS011;44782;0.000;0.000;2023-03-01T15:17:43;3.30;;;3.00;;
58992;SDS011;44782;0.000;0.000;2023-03-01T15:19:59;3.03;;;2.73;;
58992;SDS011;44782;0.000;0.000;2023-03-01T15:22:19;2.73;;;2.53;;
58992;SDS011;44782;0.000;0.000;2023-03-01T15:24:40;2.53;;;2.33;;
58992;SDS011;44782;0.000;0.000;2023-03-01T15:26:59;2.80;;;2.60;;
58992;SDS011;44782;0.000;0.000;2023-03-01T15:29:23;3.00;;;2.80;;
58992;SDS011;44782;0.000;0.000;2023-03-01T15:31:56;2.73;;;2.53;;
58992;SDS011;44782;0.000;0.000;2023-03-01T15:36:45;2.70;;;2.50;;
58992;SDS011;44782;0.000;0.000;2023-03-01T15:39:04;2.67;;;2.47;;
58992;SDS011;44782;0.000;0.000;2023-03-01T15:41:46;2.60;;;2.40;;
58992;SDS011;44782;0.000;0.000;2023-03-01T15:44:16;2.57;;;2.37;;
58992;SDS011;44782;0.000;0.000;2023-03-01T15:46:45;2.50;;;2.30;;
58992;SDS011;44782;0.000;0.000;2023-03-01T15:49:04;3.07;;;2.60;;
58992;SDS011;44782;0.000;0.000;2023-03-01T15:51:35;2.80;;;2.60;;
58992;SDS011;44782;0.000;0.000;2023-03-01T15:53:51;2.70;;;2.50;;